Time;durP1;ratioP1;P1;durP2;ratioP2;P2;SDS_P1;SDS_P2;PMS_P1;PMS_P2;Temp;Humidity;BMP_temperature;BMP_pressure;BME280_temperature;BME280_humidity;BME280_pressure;Samples;Min_cycle;Max_cycle;Signal;HPM_P1;HPM_P2
2022/09/15 01:51:38;;;;;;;;;;;;;;;;;;4917725;29;19970;-87
2022/09/15 01:54:03;;;;;;;;;;;;;;;;;;4903742;29;20355;-87
2022/09/15 01:56:28;;;;;;;;;;;;;;;;;;4906033;29;19923;-87
2022/09/15 01:58:54;;;;;;;;;;;;;;;;;;4908595;29;19973;-88
2022/09/15 02:01:19;;;;;;;;;;;;;;;;;;4910708;29;20325;-88
2022/09/15 02:03:44;;;;;;;;;;;;;;;;;;4909321;29;19916;-88
2022/09/15 02:06:09;;;;;;;;;;;;;;;;;;4916501;29;20393;-89
2022/09/15 02:08:34;;;;;;;;;;;;;;;;;;4901204;29;20018;-89
2022/09/15 02:11:00;;;;;;;;;;;;;;;;;;4914073;29;19911;-88
2022/09/15 02:13:25;;;;;;;;;;;;;;;;;;4928726;29;19978;-87
2022/09/15 02:15:50;;;;;;;;;;;;;;;;;;4934864;29;19911;-85
2022/09/15 02:18:15;;;;;;;;;;;;;;;;;;4928373;29;19915;-87
2022/09/15 02:20:41;;;;;;;;;;;;;;;;;;4926561;29;19915;-88
2022/09/15 02:23:07;;;;;;;;;;;;;;;;;;4916650;29;19987;-89
2022/09/15 02:25:32;;;;;;;;;;;;;;;;;;4912497;29;20437;-89
2022/09/15 02:27:58;;;;;;;;;;;;;;;;;;4919017;29;19927;-89
2022/09/15 02:30:23;;;;;;;;;;;;;;;;;;4914744;29;19919;-89
2022/09/15 02:32:49;;;;;;;;;;;;;;;;;;4901634;29;19942;-89
2022/09/15 02:35:14;;;;;;;;;;;;;;;;;;4914234;29;19919;-90
2022/09/15 02:37:39;;;;;;;;;;;;;;;;;;4904639;29;19926;-90
2022/09/15 02:40:04;;;;;;;;;;;;;;;;;;4916735;29;19919;-89
2022/09/15 02:42:29;;;;;;;;;;;;;;;;;;4907694;29;20263;-89
2022/09/15 02:44:55;;;;;;;;;;;;;;;;;;4910622;29;19925;-89
2022/09/15 02:47:20;;;;;;;;;;;;;;;;;;4909831;29;20396;-89
2022/09/15 02:49:45;;;;;;;;;;;;;;;;;;4914694;29;19919;-89
2022/09/15 02:52:10;;;;;;;;;;;;;;;;;;4909328;29;19987;-89
2022/09/15 02:54:35;;;;;;;;;;;;;;;;;;4908508;29;20051;-89
2022/09/15 02:57:00;;;;;;;;;;;;;;;;;;4911979;29;19923;-89
2022/09/15 02:59:26;;;;;;;;;;;;;;;;;;4915428;29;19943;-89
2022/09/15 03:01:51;;;;;;;;;;;;;;;;;;4890301;29;20354;-90
2022/09/15 03:04:16;;;;;;;;;;;;;;;;;;4904800;29;20217;-89
2022/09/15 03:06:42;;;;;;;;;;;;;;;;;;4902009;29;19911;-90
2022/09/15 03:09:07;;;;;;;;;;;;;;;;;;4907054;29;19923;-89
2022/09/15 03:11:32;;;;;;;;;;;;;;;;;;4910267;29;19919;-90
2022/09/15 03:13:57;;;;;;;;;;;;;;;;;;4913837;29;19944;-90
2022/09/15 03:16:23;;;;;;;;;;;;;;;;;;4919438;29;19931;-88
2022/09/15 03:18:48;;;;;;;;;;;;;;;;;;4911262;29;19959;-88
2022/09/15 03:21:13;;;;;;;;;;;;;;;;;;4905921;29;19976;-88
2022/09/15 03:23:38;;;;;;;;;;;;;;;;;;4907826;29;19986;-89
2022/09/15 03:26:04;;;;;;;;;;;;;;;;;;4911033;29;20374;-89
2022/09/15 03:28:29;;;;;;;;;;;;;;;;;;4909312;29;19966;-89
2022/09/15 03:30:54;;;;;;;;;;;;;;;;;;4913139;29;19926;-89
2022/09/15 03:33:20;;;;;;;;;;;;;;;;;;4911634;29;20130;-89
2022/09/15 03:35:45;;;;;;;;;;;;;;;;;;4906100;29;19919;-89
2022/09/15 03:38:10;;;;;;;;;;;;;;;;;;4916482;29;19915;-89
2022/09/15 03:40:36;;;;;;;;;;;;;;;;;;4908898;29;19921;-89
2022/09/15 03:43:01;;;;;;;;;;;;;;;;;;4908619;29;19929;-89
2022/09/15 03:45:27;;;;;;;;;;;;;;;;;;4914862;29;20334;-89
2022/09/15 03:47:52;;;;;;;;;;;;;;;;;;4915206;29;19924;-90
2022/09/15 03:50:17;;;;;;;;;;;;;;;;;;4915934;29;19956;-90
2022/09/15 03:52:43;;;;;;;;;;;;;;;;;;4915640;29;20301;-89
2022/09/15 03:55:08;;;;;;;;;;;;;;;;;;4919095;29;19915;-88
2022/09/15 03:57:33;;;;;;;;;;;;;;;;;;4914449;29;19990;-89
2022/09/15 03:59:58;;;;;;;;;;;;;;;;;;4918435;29;19915;-89
2022/09/15 04:02:24;;;;;;;;;;;;;;;;;;4911755;29;19922;-89
2022/09/15 04:04:49;;;;;;;;;;;;;;;;;;4914423;29;19976;-89
2022/09/15 04:07:14;;;;;;;;;;;;;;;;;;4914535;29;19922;-89
2022/09/15 04:09:39;;;;;;;;;;;;;;;;;;4914014;29;19927;-88
2022/09/15 04:12:05;;;;;;;;;;;;;;;;;;4922558;29;19925;-90
2022/09/15 04:14:31;;;;;;;;;;;;;;;;;;4916114;29;19915;-89
2022/09/15 04:16:56;;;;;;;;;;;;;;;;;;4918599;29;19947;-89
2022/09/15 04:19:21;;;;;;;;;;;;;;;;;;4910906;29;19920;-89
2022/09/15 04:21:47;;;;;;;;;;;;;;;;;;4918844;29;19919;-89
2022/09/15 04:24:12;;;;;;;;;;;;;;;;;;4918259;29;19919;-89
2022/09/15 04:26:37;;;;;;;;;;;;;;;;;;4916199;29;19915;-88
2022/09/15 04:29:02;;;;;;;;;;;;;;;;;;4912975;29;19934;-89
2022/09/15 04:31:27;;;;;;;;;;;;;;;;;;4907495;29;20149;-89
2022/09/15 04:33:52;;;;;;;;;;;;;;;;;;4912532;29;19919;-88
2022/09/15 04:36:18;;;;;;;;;;;;;;;;;;4912049;29;20408;-89
2022/09/15 04:38:43;;;;;;;;;;;;;;;;;;4906833;29;19927;-88
2022/09/15 04:41:08;;;;;;;;;;;;;;;;;;4905909;29;19911;-90
2022/09/15 04:43:33;;;;;;;;;;;;;;;;;;4918251;29;20281;-89
2022/09/15 04:45:58;;;;;;;;;;;;;;;;;;4909783;29;20005;-88
2022/09/15 04:48:23;;;;;;;;;;;;;;;;;;4908450;29;19919;-91
2022/09/15 04:50:49;;;;;;;;;;;;;;;;;;4917716;29;20297;-88
2022/09/15 04:53:14;;;;;;;;;;;;;;;;;;4913878;29;19915;-89
2022/09/15 04:55:39;;;;;;;;;;;;;;;;;;4892629;29;20018;-88
2022/09/15 04:58:04;;;;;;;;;;;;;;;;;;4913329;29;19915;-89
2022/09/15 05:00:30;;;;;;;;;;;;;;;;;;4913504;29;20370;-90
2022/09/15 05:02:58;;;;;;;;;;;;;;;;;;4914522;29;19916;-88
2022/09/15 05:05:24;;;;;;;;;;;;;;;;;;4918230;29;19919;-89
2022/09/15 05:07:49;;;;;;;;;;;;;;;;;;4906214;29;19916;-90
2022/09/15 05:10:14;;;;;;;;;;;;;;;;;;4913441;29;19911;-90
2022/09/15 05:12:40;;;;;;;;;;;;;;;;;;4914891;29;20362;-89
2022/09/15 05:15:05;;;;;;;;;;;;;;;;;;4924169;29;19930;-90
2022/09/15 05:17:31;;;;;;;;;;;;;;;;;;4915304;29;20002;-90
2022/09/15 05:19:56;;;;;;;;;;;;;;;;;;4899084;29;21391;-90
2022/09/15 05:22:21;;;;;;;;;;;;;;;;;;4926843;29;19963;-90
2022/09/15 05:24:46;;;;;;;;;;;;;;;;;;4899616;29;19920;-90
2022/09/15 05:27:12;;;;;;;;;;;;;;;;;;4915334;29;19921;-90
2022/09/15 05:29:39;;;;;;;;;;;;;;;;;;4906394;29;20312;-90
2022/09/15 05:32:04;;;;;;;;;;;;;;;;;;4906552;29;20002;-90
2022/09/15 05:34:29;;;;;;;;;;;;;;;;;;4914989;29;19918;-90
2022/09/15 05:36:54;;;;;;;;;;;;;;;;;;4909227;29;19919;-91
2022/09/15 05:39:19;;;;;;;;;;;;;;;;;;4909790;29;19912;-90
2022/09/15 05:41:44;;;;;;;;;;;;;;;;;;4906054;29;19959;-90
2022/09/15 05:44:10;;;;;;;;;;;;;;;;;;4908045;29;19919;-90
2022/09/15 05:46:35;;;;;;;;;;;;;;;;;;4928101;29;19899;-91
2022/09/15 05:49:00;;;;;;;;;;;;;;;;;;4908174;29;20133;-90
2022/09/15 05:51:26;;;;;;;;;;;;;;;;;;4910652;29;19920;-89
2022/09/15 05:53:51;;;;;;;;;;;;;;;;;;4896691;29;19911;-90
2022/09/15 05:56:16;;;;;;;;;;;;;;;;;;4912293;29;19915;-90
2022/09/15 05:58:42;;;;;;;;;;;;;;;;;;4919497;29;20396;-90
2022/09/15 06:01:07;;;;;;;;;;;;;;;;;;4902802;29;20381;-89
2022/09/15 06:03:32;;;;;;;;;;;;;;;;;;4912917;29;19943;-89
2022/09/15 06:05:57;;;;;;;;;;;;;;;;;;4916244;29;20289;-91
2022/09/15 06:08:23;;;;;;;;;;;;;;;;;;4915713;29;19915;-90
2022/09/15 06:10:48;;;;;;;;;;;;;;;;;;4914928;29;19915;-89
2022/09/15 06:13:14;;;;;;;;;;;;;;;;;;4916086;29;20416;-91
2022/09/15 06:15:39;;;;;;;;;;;;;;;;;;4915229;29;19911;-88
2022/09/15 06:18:04;;;;;;;;;;;;;;;;;;4916492;29;19979;-89
2022/09/15 06:20:29;;;;;;;;;;;;;;;;;;4915021;29;20380;-88
2022/09/15 06:22:55;;;;;;;;;;;;;;;;;;4915827;29;19911;-88
2022/09/15 06:25:22;;;;;;;;;;;;;;;;;;4916188;29;19953;-88
2022/09/15 06:27:48;;;;;;;;;;;;;;;;;;4916076;29;19912;-89
2022/09/15 06:30:13;;;;;;;;;;;;;;;;;;4915207;29;19930;-89
2022/09/15 06:32:38;;;;;;;;;;;;;;;;;;4915231;29;20285;-89
2022/09/15 06:35:06;;;;;;;;;;;;;;;;;;4914958;29;20258;-90
2022/09/15 06:37:32;;;;;;;;;;;;;;;;;;4914937;29;19939;-90
2022/09/15 06:39:59;;;;;;;;;;;;;;;;;;4915170;29;19919;-89
2022/09/15 06:42:24;;;;;;;;;;;;;;;;;;4899753;29;20410;-90
2022/09/15 06:44:50;;;;;;;;;;;;;;;;;;4912324;29;19951;-89
2022/09/15 06:47:15;;;;;;;;;;;;;;;;;;4913096;29;19926;-90
2022/09/15 06:49:40;;;;;;;;;;;;;;;;;;4914041;29;20381;-89
2022/09/15 06:52:06;;;;;;;;;;;;;;;;;;4897451;29;20297;-90
2022/09/15 06:54:31;;;;;;;;;;;;;;;;;;4914327;29;20381;-89
2022/09/15 06:56:56;;;;;;;;;;;;;;;;;;4914470;29;19990;-88
2022/09/15 06:59:23;;;;;;;;;;;;;;;;;;4914614;29;19951;-88
2022/09/15 07:01:48;;;;;;;;;;;;;;;;;;4914037;29;19923;-89
2022/09/15 07:04:13;;;;;;;;;;;;;;;;;;4913865;29;20445;-90
2022/09/15 07:06:42;;;;;;;;;;;;;;;;;;4911223;29;19951;-88
2022/09/15 07:09:07;;;;;;;;;;;;;;;;;;4895293;29;19915;-87
2022/09/15 07:11:32;;;;;;;;;;;;;;;;;;4908510;29;19998;-88
2022/09/15 07:13:57;;;;;;;;;;;;;;;;;;4911391;29;19915;-88
2022/09/15 07:16:24;;;;;;;;;;;;;;;;;;4909021;29;19918;-88
2022/09/15 07:18:49;;;;;;;;;;;;;;;;;;4918275;29;19919;-88
2022/09/15 07:21:14;;;;;;;;;;;;;;;;;;4912288;29;19915;-86
2022/09/15 07:23:39;;;;;;;;;;;;;;;;;;4930860;29;19914;-89
2022/09/15 07:26:05;;;;;;;;;;;;;;;;;;4909538;29;20293;-90
2022/09/15 07:28:30;;;;;;;;;;;;;;;;;;4913756;29;19924;-88
2022/09/15 07:30:55;;;;;;;;;;;;;;;;;;4899778;29;20003;-90
2022/09/15 07:33:21;;;;;;;;;;;;;;;;;;4902456;29;19919;-88
2022/09/15 07:35:46;;;;;;;;;;;;;;;;;;4917396;29;19922;-89
2022/09/15 07:38:11;;;;;;;;;;;;;;;;;;4912551;29;19915;-89
2022/09/15 07:40:37;;;;;;;;;;;;;;;;;;4899058;29;19911;-89
2022/09/15 07:43:02;;;;;;;;;;;;;;;;;;4898369;29;19919;-89
2022/09/15 07:45:27;;;;;;;;;;;;;;;;;;4915173;29;19917;-85
2022/09/15 07:47:52;;;;;;;;;;;;;;;;;;4904953;29;19922;-85
2022/09/15 07:50:17;;;;;;;;;;;;;;;;;;4897777;29;20018;-88
2022/09/15 07:52:42;;;;;;;;;;;;;;;;;;4908427;29;19918;-89
2022/09/15 07:55:08;;;;;;;;;;;;;;;;;;4910707;29;19911;-88
2022/09/15 07:57:33;;;;;;;;;;;;;;;;;;4906319;29;19958;-89
2022/09/15 08:00:01;;;;;;;;;;;;;;;;;;4905973;29;20429;-89
2022/09/15 08:02:26;;;;;;;;;;;;;;;;;;4881713;29;19915;-87
2022/09/15 08:04:52;;;;;;;;;;;;;;;;;;4900216;29;19929;-87
2022/09/15 08:07:17;;;;;;;;;;;;;;;;;;4912303;29;19922;-88
2022/09/15 08:09:42;;;;;;;;;;;;;;;;;;4908714;29;19969;-87
2022/09/15 08:12:07;;;;;;;;;;;;;;;;;;4901774;29;19915;-87
2022/09/15 08:14:33;;;;;;;;;;;;;;;;;;4907321;29;19947;-87
2022/09/15 08:17:03;;;;;;;;;;;;;;;;;;4896113;29;20047;-87
2022/09/15 08:19:28;;;;;;;;;;;;;;;;;;4896087;29;19916;-88
2022/09/15 08:21:53;;;;;;;;;;;;;;;;;;4901272;29;20433;-88
2022/09/15 08:24:18;;;;;;;;;;;;;;;;;;4896599;29;19967;-88
2022/09/15 08:26:43;;;;;;;;;;;;;;;;;;4914638;29;20297;-87
2022/09/15 08:29:09;;;;;;;;;;;;;;;;;;4906300;29;19926;-87
2022/09/15 08:31:34;;;;;;;;;;;;;;;;;;4897035;29;19920;-88
2022/09/15 08:34:02;;;;;;;;;;;;;;;;;;4896264;29;19997;-88
2022/09/15 08:36:27;;;;;;;;;;;;;;;;;;4904809;29;20429;-88
2022/09/15 08:38:53;;;;;;;;;;;;;;;;;;4897811;29;19973;-89
2022/09/15 08:41:18;;;;;;;;;;;;;;;;;;4899685;29;20303;-88
2022/09/15 08:43:43;;;;;;;;;;;;;;;;;;4900056;29;19939;-84
2022/09/15 08:46:08;;;;;;;;;;;;;;;;;;4907070;29;19919;-87
2022/09/15 08:48:34;;;;;;;;;;;;;;;;;;4893971;29;19934;-87
2022/09/15 08:50:59;;;;;;;;;;;;;;;;;;4898574;29;19942;-87
2022/09/15 08:53:24;;;;;;;;;;;;;;;;;;4910009;29;19958;-87
2022/09/15 08:55:49;;;;;;;;;;;;;;;;;;4904645;29;19964;-88
2022/09/15 08:58:14;;;;;;;;;;;;;;;;;;4901861;29;19915;-87
2022/09/15 09:00:40;;;;;;;;;;;;;;;;;;4896280;29;19962;-84
2022/09/15 09:03:05;;;;;;;;;;;;;;;;;;4906116;29;19915;-88
2022/09/15 09:05:30;;;;;;;;;;;;;;;;;;4909047;29;19919;-87
2022/09/15 09:07:55;;;;;;;;;;;;;;;;;;4901300;29;19972;-87
2022/09/15 09:10:20;;;;;;;;;;;;;;;;;;4900812;29;19926;-86
2022/09/15 09:12:45;;;;;;;;;;;;;;;;;;4911747;29;20385;-86
2022/09/15 09:15:11;;;;;;;;;;;;;;;;;;4912404;29;19919;-88
2022/09/15 09:17:36;;;;;;;;;;;;;;;;;;4907969;29;20130;-88
2022/09/15 09:20:01;;;;;;;;;;;;;;;;;;4905570;29;19926;-87
2022/09/15 09:22:26;;;;;;;;;;;;;;;;;;4897100;29;19964;-87
2022/09/15 09:24:51;;;;;;;;;;;;;;;;;;4903507;29;19927;-88
2022/09/15 09:27:20;;;;;;;;;;;;;;;;;;4902708;29;19919;-85
2022/09/15 09:29:48;;;;;;;;;;;;;;;;;;4905069;29;20384;-85
2022/09/15 09:32:13;;;;;;;;;;;;;;;;;;4906044;29;19916;-85
2022/09/15 09:34:38;;;;;;;;;;;;;;;;;;4902241;29;20284;-86
2022/09/15 09:37:03;;;;;;;;;;;;;;;;;;4897009;29;19923;-85
2022/09/15 09:39:29;;;;;;;;;;;;;;;;;;4902166;29;19923;-85
2022/09/15 09:41:54;;;;;;;;;;;;;;;;;;4904430;29;19997;-87
2022/09/15 09:44:19;;;;;;;;;;;;;;;;;;4895316;29;19926;-87
2022/09/15 09:46:45;;;;;;;;;;;;;;;;;;4892204;29;19920;-87
2022/09/15 09:49:10;;;;;;;;;;;;;;;;;;4902273;29;19925;-87
2022/09/15 09:51:35;;;;;;;;;;;;;;;;;;4897793;29;19923;-86
2022/09/15 09:54:01;;;;;;;;;;;;;;;;;;4905422;29;20388;-86
2022/09/15 09:56:26;;;;;;;;;;;;;;;;;;4913513;29;19950;-86
2022/09/15 09:58:51;;;;;;;;;;;;;;;;;;4903631;29;20134;-89
2022/09/15 10:01:16;;;;;;;;;;;;;;;;;;4902883;29;19937;-87
2022/09/15 10:03:42;;;;;;;;;;;;;;;;;;4911972;29;19919;-89
2022/09/15 10:06:07;;;;;;;;;;;;;;;;;;4904655;29;19915;-87
2022/09/15 10:08:33;;;;;;;;;;;;;;;;;;4905239;29;20441;-89
2022/09/15 10:10:58;;;;;;;;;;;;;;;;;;4904169;29;19920;-88
2022/09/15 10:13:23;;;;;;;;;;;;;;;;;;4899061;29;19923;-88
2022/09/15 10:15:48;;;;;;;;;;;;;;;;;;4913800;29;20317;-86
2022/09/15 10:18:13;;;;;;;;;;;;;;;;;;4905045;29;20312;-86
2022/09/15 10:20:38;;;;;;;;;;;;;;;;;;4906529;29;20330;-87
2022/09/15 10:23:04;;;;;;;;;;;;;;;;;;4905068;29;20038;-86
2022/09/15 10:25:29;;;;;;;;;;;;;;;;;;4903596;29;19943;-87
2022/09/15 10:27:54;;;;;;;;;;;;;;;;;;4903393;29;19935;-88
2022/09/15 10:30:19;;;;;;;;;;;;;;;;;;4895800;29;19945;-88
2022/09/15 10:32:45;;;;;;;;;;;;;;;;;;4905374;29;19940;-89
2022/09/15 10:35:10;;;;;;;;;;;;;;;;;;4906921;29;19919;-89
2022/09/15 10:37:35;;;;;;;;;;;;;;;;;;4896302;29;19986;-89
2022/09/15 10:40:00;;;;;;;;;;;;;;;;;;4898189;29;19954;-90
2022/09/15 10:42:25;;;;;;;;;;;;;;;;;;4894568;29;20361;-87
2022/09/15 10:44:51;;;;;;;;;;;;;;;;;;4894708;29;20230;-88
2022/09/15 10:47:16;;;;;;;;;;;;;;;;;;4892802;29;20101;-89
2022/09/15 10:49:41;;;;;;;;;;;;;;;;;;4893344;29;20372;-89
2022/09/15 10:52:07;;;;;;;;;;;;;;;;;;4898956;29;19971;-90
2022/09/15 10:54:33;;;;;;;;;;;;;;;;;;4894276;29;20129;-88
2022/09/15 10:56:58;;;;;;;;;;;;;;;;;;4902588;29;19926;-88
2022/09/15 10:59:23;;;;;;;;;;;;;;;;;;4901053;29;19968;-89
2022/09/15 11:01:48;;;;;;;;;;;;;;;;;;4895920;29;19930;-90
2022/09/15 11:04:14;;;;;;;;;;;;;;;;;;4898257;29;19948;-89
2022/09/15 11:06:39;;;;;;;;;;;;;;;;;;4897200;29;19954;-89
2022/09/15 11:09:04;;;;;;;;;;;;;;;;;;4897499;29;20393;-89
2022/09/15 11:11:29;;;;;;;;;;;;;;;;;;4892910;29;19938;-88
2022/09/15 11:13:55;;;;;;;;;;;;;;;;;;4894159;29;19958;-89
2022/09/15 11:16:20;;;;;;;;;;;;;;;;;;4894356;29;19938;-90
2022/09/15 11:18:45;;;;;;;;;;;;;;;;;;4895004;29;19958;-88
2022/09/15 11:21:10;;;;;;;;;;;;;;;;;;4894374;29;19919;-88
2022/09/15 11:23:36;;;;;;;;;;;;;;;;;;4897147;29;19919;-90
2022/09/15 11:26:01;;;;;;;;;;;;;;;;;;4900398;29;19925;-89
2022/09/15 11:28:26;;;;;;;;;;;;;;;;;;4909323;29;19987;-89
2022/09/15 11:30:52;;;;;;;;;;;;;;;;;;4895838;29;19920;-88
2022/09/15 11:33:17;;;;;;;;;;;;;;;;;;4897754;29;20427;-89
2022/09/15 11:35:42;;;;;;;;;;;;;;;;;;4892896;29;20010;-88
2022/09/15 11:38:08;;;;;;;;;;;;;;;;;;4888213;29;20370;-90
2022/09/15 11:40:33;;;;;;;;;;;;;;;;;;4902194;29;20113;-91
2022/09/15 11:42:58;;;;;;;;;;;;;;;;;;4903869;29;19920;-88
2022/09/15 11:45:23;;;;;;;;;;;;;;;;;;4893135;29;20038;-87
2022/09/15 11:47:48;;;;;;;;;;;;;;;;;;4896709;29;20374;-90
2022/09/15 11:50:15;;;;;;;;;;;;;;;;;;4899437;29;20373;-88
2022/09/15 11:52:40;;;;;;;;;;;;;;;;;;4888022;29;20001;-88
2022/09/15 11:55:05;;;;;;;;;;;;;;;;;;4906779;29;20344;-85
2022/09/15 11:57:30;;;;;;;;;;;;;;;;;;4901176;29;20227;-87
2022/09/15 11:59:55;;;;;;;;;;;;;;;;;;4898931;29;20333;-88
2022/09/15 12:02:20;;;;;;;;;;;;;;;;;;4900348;29;20489;-86
2022/09/15 12:04:46;;;;;;;;;;;;;;;;;;4897187;29;19915;-88
2022/09/15 12:07:12;;;;;;;;;;;;;;;;;;4899734;29;19919;-87
2022/09/15 12:09:37;;;;;;;;;;;;;;;;;;4900021;29;19923;-85
2022/09/15 12:12:04;;;;;;;;;;;;;;;;;;4901290;29;20174;-86
2022/09/15 12:14:29;;;;;;;;;;;;;;;;;;4899812;29;20282;-88
2022/09/15 12:16:54;;;;;;;;;;;;;;;;;;4903716;29;19919;-86
2022/09/15 12:19:20;;;;;;;;;;;;;;;;;;4899037;29;20301;-88
2022/09/15 12:21:45;;;;;;;;;;;;;;;;;;4903673;29;20464;-85
2022/09/15 12:24:10;;;;;;;;;;;;;;;;;;4898742;29;19926;-85
2022/09/15 12:26:35;;;;;;;;;;;;;;;;;;4904895;29;19919;-88
2022/09/15 12:29:01;;;;;;;;;;;;;;;;;;4906866;29;19923;-87
2022/09/15 12:31:26;;;;;;;;;;;;;;;;;;4908268;29;20198;-88
2022/09/15 12:33:52;;;;;;;;;;;;;;;;;;4904204;29;19919;-88
2022/09/15 12:36:17;;;;;;;;;;;;;;;;;;4906679;29;19920;-86
2022/09/15 12:38:42;;;;;;;;;;;;;;;;;;4905613;29;19942;-87
2022/09/15 12:41:07;;;;;;;;;;;;;;;;;;4905667;29;19922;-86
2022/09/15 12:43:32;;;;;;;;;;;;;;;;;;4914855;29;19994;-89
2022/09/15 12:45:58;;;;;;;;;;;;;;;;;;4888340;29;19919;-87
2022/09/15 12:48:23;;;;;;;;;;;;;;;;;;4906679;29;19919;-88
2022/09/15 12:50:48;;;;;;;;;;;;;;;;;;4916608;29;19927;-90
2022/09/15 12:53:13;;;;;;;;;;;;;;;;;;4919085;29;19919;-87
2022/09/15 12:55:39;;;;;;;;;;;;;;;;;;4899787;29;19918;-87
2022/09/15 12:58:04;;;;;;;;;;;;;;;;;;4903498;29;20160;-90
2022/09/15 13:00:29;;;;;;;;;;;;;;;;;;4900975;29;20020;-87
2022/09/15 13:02:54;;;;;;;;;;;;;;;;;;4915547;29;19923;-89
2022/09/15 13:05:19;;;;;;;;;;;;;;;;;;4916754;29;19917;-89
2022/09/15 13:07:45;;;;;;;;;;;;;;;;;;4916799;29;19918;-89
2022/09/15 13:10:10;;;;;;;;;;;;;;;;;;4911078;29;19945;-88
2022/09/15 13:12:35;;;;;;;;;;;;;;;;;;4898303;29;20018;-90
2022/09/15 13:15:00;;;;;;;;;;;;;;;;;;4909176;29;19916;-90
2022/09/15 13:17:25;;;;;;;;;;;;;;;;;;4912192;29;19922;-89
2022/09/15 13:19:51;;;;;;;;;;;;;;;;;;4909269;29;19934;-91
2022/09/15 13:22:17;;;;;;;;;;;;;;;;;;4897382;29;20024;-90
2022/09/15 13:24:42;;;;;;;;;;;;;;;;;;4898626;29;20373;-87
2022/09/15 13:27:07;;;;;;;;;;;;;;;;;;4904880;29;19926;-88
2022/09/15 13:29:32;;;;;;;;;;;;;;;;;;4907032;29;19926;-88
2022/09/15 13:31:58;;;;;;;;;;;;;;;;;;4902831;29;20410;-89
2022/09/15 13:34:23;;;;;;;;;;;;;;;;;;4903345;29;19916;-89
2022/09/15 13:36:48;;;;;;;;;;;;;;;;;;4910125;29;19990;-87
2022/09/15 13:39:13;;;;;;;;;;;;;;;;;;4905420;29;19915;-87
2022/09/15 13:41:38;;;;;;;;;;;;;;;;;;4905286;29;19922;-88
2022/09/15 13:44:06;;;;;;;;;;;;;;;;;;4909035;29;19926;-88
2022/09/15 13:46:31;;;;;;;;;;;;;;;;;;4909546;29;19966;-89
2022/09/15 13:48:56;;;;;;;;;;;;;;;;;;4902702;29;19966;-86
2022/09/15 13:51:21;;;;;;;;;;;;;;;;;;4914265;29;20007;-88
2022/09/15 13:53:47;;;;;;;;;;;;;;;;;;4909729;29;19941;-87
2022/09/15 13:56:12;;;;;;;;;;;;;;;;;;4910685;29;19915;-89
2022/09/15 13:58:37;;;;;;;;;;;;;;;;;;4913435;29;20074;-87
2022/09/15 14:01:02;;;;;;;;;;;;;;;;;;4903882;29;19919;-87
2022/09/15 14:03:28;;;;;;;;;;;;;;;;;;4908570;29;20468;-88
2022/09/15 14:05:53;;;;;;;;;;;;;;;;;;4911205;29;19939;-88
2022/09/15 14:08:18;;;;;;;;;;;;;;;;;;4914605;29;19919;-87
2022/09/15 14:10:43;;;;;;;;;;;;;;;;;;4914940;29;19973;-88
2022/09/15 14:13:08;;;;;;;;;;;;;;;;;;4909060;29;19983;-88
2022/09/15 14:15:33;;;;;;;;;;;;;;;;;;4910712;29;19927;-88
2022/09/15 14:17:59;;;;;;;;;;;;;;;;;;4911476;29;20274;-88
2022/09/15 14:20:24;;;;;;;;;;;;;;;;;;4903188;29;20081;-88
2022/09/15 14:22:52;;;;;;;;;;;;;;;;;;4896159;29;20366;-89
2022/09/15 14:25:17;;;;;;;;;;;;;;;;;;4897092;29;19911;-87
2022/09/15 14:27:42;;;;;;;;;;;;;;;;;;4906250;29;19963;-88
2022/09/15 14:30:07;;;;;;;;;;;;;;;;;;4895932;29;20418;-89
2022/09/15 14:32:32;;;;;;;;;;;;;;;;;;4896934;29;19911;-89
2022/09/15 14:34:58;;;;;;;;;;;;;;;;;;4897046;29;19947;-91
2022/09/15 14:37:23;;;;;;;;;;;;;;;;;;4896678;29;20263;-89
2022/09/15 14:39:48;;;;;;;;;;;;;;;;;;4896671;29;19911;-90
2022/09/15 14:42:14;;;;;;;;;;;;;;;;;;4896334;29;19915;-90
2022/09/15 14:44:39;;;;;;;;;;;;;;;;;;4900840;29;19927;-87
2022/09/15 14:47:05;;;;;;;;;;;;;;;;;;4905109;29;19962;-86
2022/09/15 14:49:30;;;;;;;;;;;;;;;;;;4915149;29;19966;-87
2022/09/15 14:51:55;;;;;;;;;;;;;;;;;;4914872;29;19926;-87
2022/09/15 14:54:20;;;;;;;;;;;;;;;;;;4899692;29;19971;-88
2022/09/15 14:56:46;;;;;;;;;;;;;;;;;;4910407;29;19922;-88
2022/09/15 14:59:11;;;;;;;;;;;;;;;;;;4909747;29;20445;-89
2022/09/15 15:01:36;;;;;;;;;;;;;;;;;;4915110;29;20350;-89
2022/09/15 15:04:01;;;;;;;;;;;;;;;;;;4910136;29;19922;-87
2022/09/15 15:06:27;;;;;;;;;;;;;;;;;;4911467;29;20362;-87
2022/09/15 15:08:52;;;;;;;;;;;;;;;;;;4907495;29;20017;-88
2022/09/15 15:11:17;;;;;;;;;;;;;;;;;;4897456;29;19995;-86
2022/09/15 15:13:42;;;;;;;;;;;;;;;;;;4909624;29;19923;-89
2022/09/15 15:16:07;;;;;;;;;;;;;;;;;;4891418;29;20372;-88
2022/09/15 15:18:45;;;;;;;;;;;;;;;;;;4906927;29;19923;-88
2022/09/15 15:33:06;;;;;;;;;;;;;;;;;;;;;
2022/09/15 16:59:43;;;;;;;;;;;;;;;;;;4921699;29;20057;-85
2022/09/15 17:02:08;;;;;;;;;;;;;;;;;;4923473;29;20654;-85
2022/09/15 17:04:33;;;;;;;;;;;;;;;;;;4929605;29;19934;-85
2022/09/15 17:06:58;;;;;;;;;;;;;;;;;;4930044;29;19921;-86
2022/09/15 17:09:23;;;;;;;;;;;;;;;;;;4909826;29;19919;-85
2022/09/15 17:11:49;;;;;;;;;;;;;;;;;;4912980;29;20357;-86
2022/09/15 17:14:15;;;;;;;;;;;;;;;;;;4911373;29;19915;-88
2022/09/15 17:16:40;;;;;;;;;;;;;;;;;;4911900;29;20580;-86
2022/09/15 17:19:05;;;;;;;;;;;;;;;;;;4912117;29;19914;-86
2022/09/15 17:21:30;;;;;;;;;;;;;;;;;;4910315;29;19919;-85
2022/09/15 17:23:55;;;;;;;;;;;;;;;;;;4914364;29;19930;-86
2022/09/15 17:26:21;;;;;;;;;;;;;;;;;;4912145;29;19983;-85
2022/09/15 17:28:46;;;;;;;;;;;;;;;;;;4918910;29;19947;-86
2022/09/15 17:31:12;;;;;;;;;;;;;;;;;;4907648;29;19915;-85
2022/09/15 17:33:37;;;;;;;;;;;;;;;;;;4910451;29;20346;-85
2022/09/15 17:36:02;;;;;;;;;;;;;;;;;;4911459;29;19915;-84
2022/09/15 17:38:27;;;;;;;;;;;;;;;;;;4914094;29;19924;-84
2022/09/15 17:40:54;;;;;;;;;;;;;;;;;;4892272;29;20568;-85
2022/09/15 17:43:19;;;;;;;;;;;;;;;;;;4905612;29;20010;-84
2022/09/15 17:45:44;;;;;;;;;;;;;;;;;;4906647;29;20017;-85
2022/09/15 17:48:09;;;;;;;;;;;;;;;;;;4913586;29;20308;-86
2022/09/15 17:50:35;;;;;;;;;;;;;;;;;;4910497;29;19915;-85
2022/09/15 17:53:00;;;;;;;;;;;;;;;;;;4908174;29;19975;-85
2022/09/15 17:55:26;;;;;;;;;;;;;;;;;;4888697;29;20463;-85
2022/09/15 17:57:51;;;;;;;;;;;;;;;;;;4905553;29;19929;-83
2022/09/15 18:00:16;;;;;;;;;;;;;;;;;;4905874;29;19926;-84
2022/09/15 18:02:41;;;;;;;;;;;;;;;;;;4913498;29;19974;-86
2022/09/15 18:05:06;;;;;;;;;;;;;;;;;;4912184;29;20229;-85
2022/09/15 18:07:32;;;;;;;;;;;;;;;;;;4914697;29;19953;-85
2022/09/15 18:09:57;;;;;;;;;;;;;;;;;;4907431;29;19934;-86
2022/09/15 18:12:22;;;;;;;;;;;;;;;;;;4909626;29;19918;-85
2022/09/15 18:14:47;;;;;;;;;;;;;;;;;;4910953;29;19970;-85
2022/09/15 18:17:18;;;;;;;;;;;;;;;;;;4918433;29;20329;-86
2022/09/15 18:19:58;;;;;;;;;;;;;;;;;;4903451;29;19998;-86
2022/09/15 18:22:24;;;;;;;;;;;;;;;;;;4906938;29;19919;-86
2022/09/15 18:24:49;;;;;;;;;;;;;;;;;;4907571;29;19926;-85
2022/09/15 18:27:14;;;;;;;;;;;;;;;;;;4909099;29;19922;-86
2022/09/15 18:29:42;;;;;;;;;;;;;;;;;;4906091;29;19970;-85
2022/09/15 18:32:07;;;;;;;;;;;;;;;;;;4907472;29;19919;-86
2022/09/15 18:34:32;;;;;;;;;;;;;;;;;;4902813;29;19918;-85
2022/09/15 18:36:57;;;;;;;;;;;;;;;;;;4906399;29;19986;-86
2022/09/15 18:39:23;;;;;;;;;;;;;;;;;;4906209;29;19922;-85
2022/09/15 18:41:48;;;;;;;;;;;;;;;;;;4908744;29;20330;-86
2022/09/15 18:44:14;;;;;;;;;;;;;;;;;;4906750;29;20642;-85
2022/09/15 18:46:39;;;;;;;;;;;;;;;;;;4906415;29;19919;-85
2022/09/15 18:49:04;;;;;;;;;;;;;;;;;;4904802;29;20095;-86
2022/09/15 18:51:29;;;;;;;;;;;;;;;;;;4907630;29;19933;-86
2022/09/15 18:53:56;;;;;;;;;;;;;;;;;;4907691;29;19927;-85
2022/09/15 18:56:21;;;;;;;;;;;;;;;;;;4909686;29;19974;-86
2022/09/15 18:58:46;;;;;;;;;;;;;;;;;;4908544;29;19927;-86
2022/09/15 19:01:11;;;;;;;;;;;;;;;;;;4904930;29;19915;-85
2022/09/15 19:03:38;;;;;;;;;;;;;;;;;;4906200;29;19923;-85
2022/09/15 19:06:04;;;;;;;;;;;;;;;;;;4905694;29;19923;-85
2022/09/15 19:08:29;;;;;;;;;;;;;;;;;;4910834;29;19927;-85
2022/09/15 19:10:54;;;;;;;;;;;;;;;;;;4908302;29;19919;-86
2022/09/15 19:13:19;;;;;;;;;;;;;;;;;;4907666;29;20362;-86
2022/09/15 19:15:44;;;;;;;;;;;;;;;;;;4904274;29;20094;-85
2022/09/15 19:18:10;;;;;;;;;;;;;;;;;;4909977;29;20444;-85
2022/09/15 19:20:35;;;;;;;;;;;;;;;;;;4908045;29;20396;-85
2022/09/15 19:23:00;;;;;;;;;;;;;;;;;;4907057;29;19926;-86
2022/09/15 19:25:25;;;;;;;;;;;;;;;;;;4909434;29;19971;-86
2022/09/15 19:27:50;;;;;;;;;;;;;;;;;;4907537;29;20042;-86
2022/09/15 19:30:16;;;;;;;;;;;;;;;;;;4909612;29;19955;-85
2022/09/15 19:32:41;;;;;;;;;;;;;;;;;;4908327;29;19948;-84
2022/09/15 19:35:06;;;;;;;;;;;;;;;;;;4908952;29;19926;-86
2022/09/15 19:37:31;;;;;;;;;;;;;;;;;;4909297;29;19915;-85
2022/09/15 19:39:57;;;;;;;;;;;;;;;;;;4909019;29;19923;-86
2022/09/15 19:42:22;;;;;;;;;;;;;;;;;;4910769;29;19921;-85
2022/09/15 19:44:48;;;;;;;;;;;;;;;;;;4902419;29;20812;-85
2022/09/15 19:47:13;;;;;;;;;;;;;;;;;;4910089;29;19919;-85
2022/09/15 19:49:38;;;;;;;;;;;;;;;;;;4914247;29;20428;-85
2022/09/15 19:52:05;;;;;;;;;;;;;;;;;;4907461;29;19919;-85
2022/09/15 19:54:30;;;;;;;;;;;;;;;;;;4908317;29;19929;-85
2022/09/15 19:56:55;;;;;;;;;;;;;;;;;;4908616;29;19923;-86
2022/09/15 19:59:20;;;;;;;;;;;;;;;;;;4904837;29;19926;-86